ADDS METAR Data INFO
IDs: Format: Raw Decoded Include TAF

Data at: 1407 UTC 24 Feb 2018

KSHV 241358Z 16008KT 3SM -RA BR FEW008 BKN015 OVC041 20/20 A2994 RMK AO2 P0000 T02000200
KSHV 241356Z 16008KT 2SM -RA BR SCT006 SCT011 OVC032 20/20 A2994 RMK AO2 RAB27 TSB31E52 SLP137 TS MOV NE P0002 T02000200
KSHV 241353Z 15008KT 2SM -RA BR SCT006 SCT011 OVC032 20/20 A2994 RMK AO2 RAB27 TSB31E52 TS MOV NE P0002
KSHV 241342Z 15009KT 1 1/2SM -TSRA BR SCT005 BKN013 OVC044CB 20/20 A2995 RMK AO2 RAB27 TSB31 OCNL LTGIC SW TS SW MOV NE P0001 T02000200
KSHV 241331Z 15008KT 2SM -TSRA BR SCT003 BKN005 OVC015CB 19/19 A2995 RMK AO2 RAB27 TSB31 OCNL LTGIC SW TS SW MOV NE P0000 T01940194
KSHV 241314Z 14005KT 2 1/2SM BR SCT003 OVC005 19/19 A2996 RMK AO2 T01940194
KSHV 241256Z 13004KT 3SM BR SCT005 OVC011 19/19 A2996 RMK AO2 LTG DSNT SE SLP142 OCNL LTGIC DSNT E CB DSNT E-SE AND S MOV NE T01940194
KSHV 241250Z 13004KT 4SM BR SCT005 OVC011 19/19 A2996 RMK AO2
KSHV 241229Z 14004KT 4SM BR BKN007 BKN010 OVC017 19/19 A2996 RMK AO2 T01940194
KSHV 241208Z 11004KT 4SM BR SCT005 SCT009 OVC017 19/19 A2995 RMK AO2 T01890189
KSHV 241156Z 14006KT 6SM BR BKN005 BKN014 OVC023 19/19 A2996 RMK AO2 SLP142 T01940194 10194 20172 56009
KSHV 241056Z 14003KT 6SM BR SCT004 BKN007 OVC014 19/19 A2997 RMK AO2 SLP144 T01890189
KSHV 241044Z 15004KT 5SM BR BKN009 BKN014 OVC023 18/18 A2997 RMK AO2 T01830183
KSHV 241038Z 14004KT 5SM BR SCT009 BKN014 OVC075 18/18 A2997 RMK AO2 T01830183
KSHV 241002Z 13004KT 7SM SCT008 BKN024 BKN075 19/19 A2997 RMK AO2 T01890189
KSHV 240956Z 14005KT 7SM BKN008 BKN024 BKN075 18/18 A2997 RMK AO2 SLP146 T01830183
KSHV 240856Z 00000KT 8SM BKN009 OVC065 18/18 A2999 RMK AO2 SLP151 T01830183 58014
KSHV 240850Z 12003KT 8SM BKN008 BKN025 OVC065 18/18 A2998 RMK AO2
KSHV 240830Z 13003KT 9SM FEW008 BKN027 OVC070 18/18 A2999 RMK AO2 T01830183
KSHV 240756Z 00000KT 9SM SCT017 BKN029 OVC035 18/18 A3001 RMK AO2 SLP160 T01830183
KSHV 240740Z 18003KT 7SM BKN017 BKN029 17/17 A3001 RMK AO2 T01720172
KSHV 240720Z 15006KT 9SM FEW013 SCT022 SCT090 18/18 A3001 RMK AO2 T01780178
KSHV 240706Z 17005KT 10SM FEW013 BKN022 BKN090 18/18 A3001 RMK AO2 T01780178
KSHV 240656Z 18005KT 10SM FEW013 SCT090 17/17 A3002 RMK AO2 SLP162 T01720172
KSHV 240556Z 17006KT 10SM CLR 18/17 A3003 RMK AO2 SLP165 T01780172 10233 20167 402560111 58007
KSHV 240456Z 17006KT 7SM CLR 17/17 A3004 RMK AO2 SLP170 T01720167
KSHV 240356Z 16003KT 10SM FEW160 18/18 A3004 RMK AO2 SLP172 T01780178
KSHV 240256Z 12004KT 10SM SCT055 SCT160 19/19 A3005 RMK AO2 SLP172 T01890189 56003
KSHV 240156Z 10004KT 10SM FEW150 19/19 A3005 RMK AO2 SLP173 T01940189
KSHV 240056Z 09007KT 10SM FEW060 SCT150 21/19 A3005 RMK AO2 SLP173 T02110194
KSHV 232356Z 10005KT 10SM BKN060 BKN150 23/19 A3006 RMK AO2 SLP176 T02330194 10256 20161 56014
KSHV 232256Z 11005KT 10SM FEW055 SCT160 SCT270 24/19 A3006 RMK AO2 SLP178 T02390189
KSHV 232225Z 11004KT 10SM FEW160 SCT270 25/19 A3006 RMK AO2 T02500189
KSHV 232156Z 12004KT 10SM FEW160 SCT270 25/19 A3007 RMK AO2 SLP180 T02500194
KSHV 232056Z 08004KT 10SM FEW032 SCT140 BKN270 24/19 A3010 RMK SLP190 T02400180 56035
KSHV 231956Z 01003KT 7SM FEW014 SCT027 BKN130 22/18 A3012 RMK SLP198 T02170183
KSHV 231856Z 36005KT 7SM SCT005 BKN015 BKN130 19/18 A3015 RMK PRESFR SLP208 T01890178
KSHV 231756Z 09005KT 4SM BR OVCOO5 16/16 A3020 RMK SLP226 60000 T01610156 T0161 20117 58021
KSHV 231710Z 03003KT 2SM BR OVC002 14/14 A3024 RMK SLP237 T01390139
KSHV 231656Z 03003KT 2SM BR OVC0002 13/14 A3024 RMK SLP237 T01390139
KSHV 231645Z 04003KT 1 1/2SM BR OVCOO2 14/14 A3025
KSHV 231556Z 04004KT 3/4SM BCFG BR OVCOO2 13/13 A3025 RMK SLP242 RBO3E20 P0000 T01330133
KSHV 231456Z 35006KT 3/4SM BCFG BR OVC002 13/13 A3027 RMK T01280128 53017
KSHV 231450Z 07004KT 1SM BCFG BR OVC003 13/13 A3027
KSHV 231425Z 09003KT 2SM BCFG BR OVC004 12/12 A3025
KSHV 231356Z 07003KT 4SM BR 0VC005 12/12 A3025 RMK AO2 CIG003V006 SLP241 T01220122
KSHV 231256Z 05003KT 10SM OVC007 12/12 A3022 RMK AO2 SLP231 T01220122
KSHV 231158Z 09003KT 10SM 0VC008 12/12 A3022 RMK AO2 RAB06RAE14 SLP231 P0000 60013 70057 T01170117 10128 20111 50001
KSHV 231157Z 09003KT 10SM 0VC008 12/12 RMK AO2 RAB06RAE14 SLP231 P0000 60013 70057 T01170117 10128 20111 50001
KSHV 231156Z 06004KT 10SM SCT003 OVC009 12/12 3022 RMK AO2 RAE00RAB21RAE30 SLP232 P0000 T01170117
KSHV 231056Z 06003KT 10SM SCT003 OVC009 A3022 RMK AO2 RAE00RAB21RAE30 SLP232 P0000 T01170117
KSHV 230956Z 33005KT 4SM -RA BR OVC003 11/11 A3022 RMK RAE59RAB41 SLP233 P0000 T011011
KSHV 230856Z 32005KT 4SM -RA BR OVC003 A3021 RMK RB49 SLP229 P0000 60013 T01170117 51001
KSHV 230756Z 32005KT 10SM OVC003 12/12 A3020 RMK A02 RB10RE25 SLP226 P0008 T01220122
KSHV 230656Z 00000KT 10SM -RA OVC008 13/13 A3020 RMK SLP219 P0007 T01280128
KSHV 230556Z 34003KT 10SM -RA OVC004 13/13 A3021 RMK SLP228 OCNL LTGIC DSNT N-E-SE P0005 60033 101280128 10133 20128 401330100 58001
KSHV 230456Z 34003KT 10SM -RA OVC005 13/13 A3023 RMK RAE06B44 SLP234 P0004 T01280128
KSHV 230356Z 00000KT 10SM -RA OVC005 13/13 A3021 RMK CIG 003V007 TSE18 TS MOV NE P0003 T01280128
KSHV 230318Z 06004KT 8SM -RA BKN005 OVC011 13/13 A3021 RMK TSE18 TS MOV NE P0001 T01280128
KSHV 230256Z 08003KT 9SM -TSRA FEW003 BKN025 OVC034CB 13/13 A3021 RMK TSB05RAB07 SLP229 OCNL LTGIC N-E TS N-E MOV NE P0025 60025 T01280128 53014
KSHV 230244Z 01005KT 4SM -TSRA BR BKN002 OVC020CB 13/13 A3020 RMK TSB05 OCNL LTGICCG OHD AND ALQDS TS OHD AND ALQDS MOV NE P0008 T01280128
KSHV 230215Z 34004KT 1 1/4SM -TSRA BR OVC002CB 13/13 A3019 RMK TSB05 OCNL LTGIC SW-W TS SW-W MOV NE P0000 T01280128